createdAt,value
2023-01-25T00:00:36.115Z,3.83
2023-01-25T00:03:03.268Z,4.40
2023-01-25T00:05:32.597Z,4.00
2023-01-25T00:07:59.663Z,3.55
2023-01-25T00:10:26.893Z,3.90
2023-01-25T00:12:57.369Z,3.47
2023-01-25T00:15:24.765Z,3.22
2023-01-25T00:17:51.822Z,3.80
2023-01-25T00:20:18.913Z,4.22
2023-01-25T00:22:48.172Z,4.35
2023-01-25T00:25:17.763Z,3.30
2023-01-25T00:27:44.926Z,3.15
2023-01-25T00:30:12.395Z,4.13
2023-01-25T00:32:49.822Z,4.18
2023-01-25T00:35:16.944Z,4.22
2023-01-25T00:37:44.921Z,4.35
2023-01-25T00:40:13.294Z,3.10
2023-01-25T00:42:41.129Z,4.63
2023-01-25T00:45:13.861Z,2.88
2023-01-25T00:47:44.090Z,3.85
2023-01-25T00:50:11.537Z,4.35
2023-01-25T00:52:42.979Z,4.55
2023-01-25T00:55:10.446Z,2.75
2023-01-25T00:57:37.627Z,4.07
2023-01-25T01:00:05.273Z,3.95
2023-01-25T01:02:32.428Z,4.22
2023-01-25T01:05:00.112Z,4.05
2023-01-25T01:07:29.674Z,3.85
2023-01-25T01:09:56.822Z,3.83
2023-01-25T01:12:27.512Z,3.47
2023-01-25T01:14:54.655Z,4.05
2023-01-25T01:17:21.679Z,3.72
2023-01-25T01:19:48.728Z,3.95
2023-01-25T01:22:15.815Z,4.53
2023-01-25T01:24:48.460Z,3.63
2023-01-25T01:27:15.574Z,3.72
2023-01-25T01:29:42.607Z,4.32
2023-01-25T01:32:09.799Z,3.88
2023-01-25T01:34:39.783Z,3.17
2023-01-25T01:37:07.279Z,4.00
2023-01-25T01:39:34.448Z,4.00
2023-01-25T01:42:02.683Z,4.00
2023-01-25T01:44:49.150Z,3.35
2023-01-25T01:47:26.762Z,3.55
2023-01-25T01:50:05.581Z,4.65
2023-01-25T01:53:04.397Z,3.38
2023-01-25T01:55:50.488Z,3.72
2023-01-25T01:58:17.992Z,3.50
2023-01-25T02:00:47.551Z,3.25
2023-01-25T02:03:16.985Z,2.70
2023-01-25T02:05:47.074Z,3.00
2023-01-25T02:08:17.414Z,2.72
2023-01-25T02:10:44.686Z,3.30
2023-01-25T02:13:12.256Z,2.78
2023-01-25T02:15:45.849Z,3.40
2023-01-25T02:18:13.205Z,2.92
2023-01-25T02:20:43.559Z,2.60
2023-01-25T02:23:34.242Z,2.58
2023-01-25T02:26:05.281Z,2.45
2023-01-25T02:28:43.933Z,2.92
2023-01-25T02:31:11.206Z,3.22
2023-01-25T02:33:38.471Z,2.80
2023-01-25T02:36:05.399Z,3.05
2023-01-25T02:41:38.009Z,2.28
2023-01-25T02:44:25.751Z,2.85
2023-01-25T02:46:53.115Z,2.80
2023-01-25T02:49:20.761Z,2.65
2023-01-25T02:51:52.195Z,1.83
2023-01-25T02:54:21.064Z,2.30
2023-01-25T02:56:48.445Z,2.47
2023-01-25T02:59:16.415Z,2.05
2023-01-25T03:01:48.190Z,2.88
2023-01-25T03:04:16.259Z,2.78
2023-01-25T03:06:46.430Z,3.17
2023-01-25T03:09:13.848Z,3.15
2023-01-25T03:11:45.322Z,3.22
2023-01-25T03:14:17.403Z,2.70
2023-01-25T03:16:44.761Z,3.90
2023-01-25T03:19:12.281Z,3.65
2023-01-25T03:21:41.072Z,3.33
2023-01-25T03:24:10.464Z,3.17
2023-01-25T03:27:01.883Z,2.33
2023-01-25T03:29:37.959Z,2.65
2023-01-25T03:32:10.808Z,2.40
2023-01-25T03:34:40.369Z,2.80
2023-01-25T03:37:08.181Z,3.33
2023-01-25T03:39:37.178Z,2.70
2023-01-25T03:42:04.452Z,2.80
2023-01-25T03:44:32.453Z,2.72
2023-01-25T03:46:59.959Z,2.70
2023-01-25T03:49:28.345Z,2.40
2023-01-25T03:51:55.515Z,2.88
2023-01-25T03:54:28.892Z,2.95
2023-01-25T03:56:59.028Z,2.55
2023-01-25T03:59:26.393Z,2.30
2023-01-25T04:01:55.425Z,3.33
2023-01-25T04:04:23.231Z,3.17
2023-01-25T04:06:50.990Z,3.00
2023-01-25T04:09:18.273Z,3.15
2023-01-25T04:11:51.344Z,2.78
2023-01-25T04:14:28.415Z,2.95
2023-01-25T04:17:08.505Z,1.98
2023-01-25T04:20:05.644Z,2.30
2023-01-25T04:22:37.228Z,3.42
2023-01-25T04:29:05.435Z,2.53
2023-01-25T04:31:46.969Z,1.85
2023-01-25T04:34:14.475Z,1.98
2023-01-25T04:36:41.858Z,2.75
2023-01-25T04:39:09.202Z,2.78
2023-01-25T04:41:37.327Z,3.35
2023-01-25T04:44:05.810Z,3.33
2023-01-25T04:46:33.603Z,2.60
2023-01-25T04:49:01.856Z,3.38
2023-01-25T04:51:28.941Z,2.88
2023-01-25T04:53:59.425Z,2.60
2023-01-25T04:56:27.412Z,3.17
2023-01-25T04:58:58.828Z,2.85
2023-01-25T05:01:32.136Z,3.15
2023-01-25T05:04:00.984Z,2.88
2023-01-25T05:06:37.473Z,2.80
2023-01-25T05:09:10.188Z,2.80
2023-01-25T05:11:39.806Z,2.47
2023-01-25T05:14:12.164Z,2.40
2023-01-25T05:16:41.951Z,3.20
2023-01-25T05:19:10.176Z,4.15
2023-01-25T05:21:59.356Z,3.60
2023-01-25T05:24:35.423Z,2.50
2023-01-25T05:27:10.391Z,3.65
2023-01-25T05:29:57.107Z,2.90
2023-01-25T05:32:33.101Z,2.72
2023-01-25T05:35:03.254Z,2.83
2023-01-25T05:37:30.707Z,2.75
2023-01-25T05:40:02.764Z,2.88
2023-01-25T05:42:33.161Z,2.25
2023-01-25T05:45:00.857Z,2.92
2023-01-25T05:47:28.766Z,3.50
2023-01-25T05:49:58.483Z,3.13
2023-01-25T05:52:41.654Z,3.40
2023-01-25T05:55:09.416Z,2.75
2023-01-25T05:57:37.487Z,3.90
2023-01-25T06:00:08.366Z,3.95
2023-01-25T06:02:42.804Z,3.85
2023-01-25T06:05:24.441Z,3.55
2023-01-25T06:07:51.577Z,4.40
2023-01-25T06:10:22.547Z,3.65
2023-01-25T06:12:53.147Z,3.40
2023-01-25T06:17:49.525Z,4.32
2023-01-25T06:20:44.813Z,4.68
2023-01-25T06:23:11.974Z,3.08
2023-01-25T06:25:39.136Z,4.07
2023-01-25T06:28:06.414Z,4.22
2023-01-25T06:30:33.519Z,3.33
2023-01-25T06:33:03.401Z,4.13
2023-01-25T06:35:36.978Z,4.47
2023-01-25T06:38:04.606Z,4.60
2023-01-25T06:40:32.033Z,3.95
2023-01-25T06:43:09.626Z,3.85
2023-01-25T06:45:36.730Z,3.28
2023-01-25T06:48:06.628Z,3.03
2023-01-25T06:50:36.603Z,4.43
2023-01-25T06:53:03.797Z,4.13
2023-01-25T06:55:32.999Z,4.60
2023-01-25T06:58:01.069Z,5.47
2023-01-25T07:00:28.126Z,4.57
2023-01-25T07:02:55.189Z,4.18
2023-01-25T07:05:24.276Z,4.35
2023-01-25T07:07:51.266Z,4.65
2023-01-25T07:10:18.467Z,4.22
2023-01-25T07:12:45.508Z,4.35
2023-01-25T07:15:12.791Z,4.63
2023-01-25T07:17:40.156Z,3.17
2023-01-25T07:20:08.007Z,4.00
2023-01-25T07:22:35.007Z,3.78
2023-01-25T07:25:02.453Z,3.08
2023-01-25T07:27:33.581Z,3.00
2023-01-25T07:30:03.062Z,4.10
2023-01-25T07:32:30.267Z,3.20
2023-01-25T07:34:57.387Z,3.80
2023-01-25T07:37:25.517Z,4.88
2023-01-25T07:39:52.566Z,4.22
2023-01-25T07:42:19.655Z,4.38
2023-01-25T07:45:08.906Z,4.40
2023-01-25T07:47:37.804Z,4.57
2023-01-25T07:50:05.470Z,4.40
2023-01-25T07:52:32.495Z,5.10
2023-01-25T07:54:59.798Z,5.05
2023-01-25T07:57:28.435Z,4.65
2023-01-25T07:59:58.367Z,5.15
2023-01-25T08:02:27.712Z,5.20
2023-01-25T08:04:57.014Z,5.30
2023-01-25T08:07:26.792Z,5.40
2023-01-25T08:09:53.895Z,6.25
2023-01-25T08:12:21.258Z,4.72
2023-01-25T08:14:50.108Z,5.45
2023-01-25T08:17:20.202Z,5.50
2023-01-25T08:19:47.491Z,6.50
2023-01-25T08:22:17.235Z,6.20
2023-01-25T08:24:47.475Z,6.13
2023-01-25T08:27:14.773Z,5.53
2023-01-25T08:29:42.240Z,6.43
2023-01-25T08:32:09.413Z,5.32
2023-01-25T08:34:39.796Z,6.72
2023-01-25T08:37:07.019Z,7.18
2023-01-25T08:39:39.328Z,7.28
2023-01-25T08:42:09.547Z,5.95
2023-01-25T08:44:37.011Z,5.60
2023-01-25T08:47:04.093Z,6.20
2023-01-25T08:49:34.612Z,5.63
2023-01-25T08:52:04.178Z,5.20
2023-01-25T08:54:32.173Z,5.55
2023-01-25T08:56:59.393Z,6.55
2023-01-25T08:59:26.948Z,6.00
2023-01-25T09:01:53.962Z,5.43
2023-01-25T09:04:21.498Z,6.25
2023-01-25T09:06:51.818Z,5.80
2023-01-25T09:09:19.093Z,5.28
2023-01-25T09:11:50.875Z,6.30
2023-01-25T09:14:21.216Z,5.85
2023-01-25T09:16:51.025Z,6.32
2023-01-25T09:19:24.427Z,5.40
2023-01-25T09:21:53.638Z,5.78
2023-01-25T09:24:21.304Z,6.15
2023-01-25T09:26:59.083Z,6.18
2023-01-25T09:29:27.200Z,6.45
2023-01-25T09:31:54.492Z,6.88
2023-01-25T09:34:42.357Z,5.25
2023-01-25T09:37:09.805Z,6.00
2023-01-25T09:39:39.248Z,6.47
2023-01-25T09:42:53.855Z,6.00
2023-01-25T09:45:27.575Z,6.07
2023-01-25T09:48:04.594Z,6.03
2023-01-25T09:50:54.698Z,6.97
2023-01-25T09:53:35.372Z,6.63
2023-01-25T09:56:13.287Z,6.95
2023-01-25T09:58:45.700Z,5.97
2023-01-25T10:01:38.982Z,6.13
2023-01-25T10:04:14.270Z,5.82
2023-01-25T10:06:48.759Z,6.97
2023-01-25T10:09:34.533Z,6.10
2023-01-25T10:12:22.277Z,6.20
2023-01-25T10:14:56.910Z,5.80
2023-01-25T10:17:33.037Z,5.75
2023-01-25T10:20:04.803Z,5.47
2023-01-25T10:22:41.892Z,5.25
2023-01-25T10:25:24.804Z,6.00
2023-01-25T10:28:07.798Z,6.15
2023-01-25T10:30:43.954Z,5.57
2023-01-25T10:33:16.543Z,5.57
2023-01-25T10:35:49.270Z,5.75
2023-01-25T10:38:35.258Z,6.15
2023-01-25T10:41:08.444Z,6.80
2023-01-25T10:43:35.692Z,7.78
2023-01-25T10:46:18.477Z,7.43
2023-01-25T10:48:45.758Z,6.93
2023-01-25T10:51:35.692Z,6.10
2023-01-25T10:54:19.571Z,5.95
2023-01-25T10:56:54.849Z,3.90
2023-01-25T10:59:31.066Z,5.05
2023-01-25T11:02:36.473Z,4.57
2023-01-25T11:05:32.405Z,4.70
2023-01-25T11:08:36.873Z,4.90
2023-01-25T11:11:24.508Z,5.32
2023-01-25T11:13:57.495Z,5.65
2023-01-25T11:16:39.432Z,4.25
2023-01-25T11:19:27.509Z,4.28
2023-01-25T11:22:20.786Z,4.45
2023-01-25T11:24:48.059Z,3.20
2023-01-25T11:27:26.859Z,3.95
2023-01-25T11:30:06.586Z,3.85
2023-01-25T11:32:35.144Z,4.55
2023-01-25T11:35:02.253Z,4.50
2023-01-25T11:37:44.981Z,4.85
2023-01-25T11:40:35.407Z,4.38
2023-01-25T11:43:21.151Z,4.40
2023-01-25T11:46:09.160Z,4.10
2023-01-25T11:49:04.402Z,4.32
2023-01-25T11:51:40.311Z,5.28
2023-01-25T11:54:25.879Z,5.30
2023-01-25T11:56:52.915Z,4.85
2023-01-25T11:59:34.194Z,5.53
2023-01-25T12:02:26.368Z,4.97
2023-01-25T12:05:23.410Z,3.70
2023-01-25T12:08:16.843Z,4.28
2023-01-25T12:10:46.767Z,4.00
2023-01-25T12:13:33.610Z,4.70
2023-01-25T12:16:19.358Z,4.30
2023-01-25T12:19:14.137Z,3.50
2023-01-25T12:22:18.241Z,4.85
2023-01-25T12:24:52.287Z,4.20
2023-01-25T12:27:50.328Z,5.43
2023-01-25T12:30:29.586Z,5.22
2023-01-25T12:33:13.848Z,5.00
2023-01-25T12:36:12.487Z,4.93
2023-01-25T12:38:39.429Z,5.00
2023-01-25T12:41:15.637Z,6.15
2023-01-25T12:43:49.936Z,4.43
2023-01-25T12:46:27.648Z,4.82
2023-01-25T12:48:58.182Z,5.30
2023-01-25T12:51:34.265Z,5.53
2023-01-25T12:54:07.051Z,4.93
2023-01-25T12:56:46.058Z,4.80
2023-01-25T12:59:19.325Z,4.05
2023-01-25T13:01:54.958Z,4.72
2023-01-25T13:04:49.422Z,5.10
2023-01-25T13:07:25.349Z,3.85
2023-01-25T13:10:01.750Z,4.80
2023-01-25T13:12:29.219Z,4.68
2023-01-25T13:14:56.435Z,4.65
2023-01-25T13:17:36.550Z,4.95
2023-01-25T13:20:41.260Z,4.22
2023-01-25T13:23:44.321Z,4.40
2023-01-25T13:26:26.634Z,4.10
2023-01-25T13:28:59.860Z,5.10
2023-01-25T13:31:51.418Z,5.10
2023-01-25T13:34:36.085Z,4.80
2023-01-25T13:37:16.066Z,4.20
2023-01-25T13:39:49.679Z,5.25
2023-01-25T13:42:23.050Z,5.18
2023-01-25T13:44:58.063Z,5.13
2023-01-25T13:47:30.671Z,5.78
2023-01-25T13:50:06.294Z,4.47
2023-01-25T13:52:33.545Z,5.00
2023-01-25T13:55:00.659Z,6.10
2023-01-25T13:57:28.762Z,4.78
2023-01-25T14:00:17.189Z,3.78
2023-01-25T14:02:47.300Z,4.32
2023-01-25T14:05:21.916Z,5.40
2023-01-25T14:07:54.306Z,4.35
2023-01-25T14:10:26.773Z,5.35
2023-01-25T14:13:00.372Z,4.50
2023-01-25T14:15:33.151Z,6.00
2023-01-25T14:18:15.018Z,4.78
2023-01-25T14:20:42.878Z,6.20
2023-01-25T14:23:29.109Z,4.93
2023-01-25T14:25:59.310Z,4.60
2023-01-25T14:28:27.392Z,4.70
2023-01-25T14:31:01.677Z,4.00
2023-01-25T14:33:33.065Z,5.47
2023-01-25T14:36:16.362Z,4.47
2023-01-25T14:38:51.404Z,3.88
2023-01-25T14:41:40.142Z,5.90
2023-01-25T14:44:13.675Z,4.20
2023-01-25T14:46:41.328Z,4.97
2023-01-25T14:49:27.121Z,4.95
2023-01-25T14:52:21.705Z,4.97
2023-01-25T14:54:55.394Z,6.35
2023-01-25T14:57:35.558Z,5.32
2023-01-25T15:00:05.653Z,4.57
2023-01-25T15:02:51.437Z,4.80
2023-01-25T15:05:29.226Z,4.13
2023-01-25T15:08:17.804Z,4.88
2023-01-25T15:10:54.672Z,4.82
2023-01-25T15:13:24.387Z,5.38
2023-01-25T15:16:04.824Z,5.82
2023-01-25T15:18:54.555Z,4.70
2023-01-25T15:21:26.692Z,5.97
2023-01-25T15:23:55.022Z,4.85
2023-01-25T15:26:23.381Z,5.55
2023-01-25T15:28:52.283Z,6.03
2023-01-25T15:31:27.774Z,5.78
2023-01-25T15:33:59.019Z,5.57
2023-01-25T15:36:26.640Z,5.35
2023-01-25T15:38:53.944Z,5.10
2023-01-25T15:41:21.494Z,5.20
2023-01-25T15:43:49.706Z,5.57
2023-01-25T15:46:30.649Z,5.53
2023-01-25T15:49:08.014Z,5.60
2023-01-25T15:51:35.885Z,5.55
2023-01-25T15:54:04.823Z,6.63
2023-01-25T15:56:34.539Z,5.68
2023-01-25T15:59:06.917Z,6.05
2023-01-25T16:01:34.295Z,6.40
2023-01-25T16:04:03.812Z,5.93
2023-01-25T16:06:38.468Z,5.35
2023-01-25T16:09:24.190Z,6.47
2023-01-25T16:11:58.521Z,5.63
2023-01-25T16:14:31.019Z,6.80
2023-01-25T16:17:03.129Z,4.57
2023-01-25T16:19:30.349Z,5.68
2023-01-25T16:21:57.895Z,6.25
2023-01-25T16:24:25.107Z,5.78
2023-01-25T16:26:59.193Z,6.60
2023-01-25T16:29:26.717Z,4.60
2023-01-25T16:31:54.656Z,3.45
2023-01-25T16:34:22.331Z,5.68
2023-01-25T16:36:53.374Z,6.32
2023-01-25T16:39:23.092Z,8.15
2023-01-25T16:41:50.610Z,6.47
2023-01-25T16:44:18.221Z,6.35
2023-01-25T16:46:50.729Z,6.72
2023-01-25T16:49:20.807Z,6.30
2023-01-25T16:51:51.906Z,7.07
2023-01-25T16:54:22.419Z,7.25
2023-01-25T16:56:50.163Z,7.10
2023-01-25T16:59:22.028Z,7.18
2023-01-25T17:01:49.414Z,7.53
2023-01-25T17:04:18.655Z,6.82
2023-01-25T17:06:55.142Z,6.30
2023-01-25T17:09:24.529Z,6.40
2023-01-25T17:11:52.621Z,5.65
2023-01-25T17:14:20.727Z,5.60
2023-01-25T17:16:53.739Z,4.80
2023-01-25T17:19:21.219Z,6.53
2023-01-25T17:21:48.591Z,5.90
2023-01-25T17:24:18.343Z,6.35
2023-01-25T17:26:45.552Z,5.93
2023-01-25T17:29:13.917Z,6.78
2023-01-25T17:31:42.469Z,6.32
2023-01-25T17:34:16.217Z,6.45
2023-01-25T17:36:46.246Z,5.80
2023-01-25T17:39:15.692Z,6.53
2023-01-25T17:41:47.834Z,6.95
2023-01-25T17:44:20.293Z,6.18
2023-01-25T17:46:48.280Z,7.13
2023-01-25T17:49:19.094Z,6.25
2023-01-25T17:51:48.513Z,7.28
2023-01-25T17:54:15.606Z,7.72
2023-01-25T17:56:42.728Z,7.63
2023-01-25T17:59:11.596Z,8.50
2023-01-25T18:01:38.998Z,6.43
2023-01-25T18:04:09.872Z,8.05
2023-01-25T18:06:37.338Z,9.95
2023-01-25T18:09:06.673Z,8.32
2023-01-25T18:11:36.499Z,7.85
2023-01-25T18:14:08.566Z,11.05
2023-01-25T18:16:40.004Z,10.95
2023-01-25T18:19:08.139Z,8.35
2023-01-25T18:21:35.781Z,8.80
2023-01-25T18:24:22.569Z,9.23
2023-01-25T18:26:51.227Z,8.27
2023-01-25T18:29:18.211Z,8.63
2023-01-25T18:31:45.636Z,8.27
2023-01-25T18:34:15.053Z,7.75
2023-01-25T18:36:42.336Z,8.27
2023-01-25T18:39:09.349Z,8.02
2023-01-25T18:41:36.431Z,7.38
2023-01-25T18:44:03.626Z,8.68
2023-01-25T18:46:30.991Z,9.65
2023-01-25T18:48:58.056Z,10.20
2023-01-25T18:51:26.418Z,6.53
2023-01-25T18:53:53.997Z,9.20
2023-01-25T18:56:22.244Z,7.88
2023-01-25T18:58:51.397Z,8.13
2023-01-25T19:01:24.611Z,7.38
2023-01-25T19:03:52.427Z,7.47
2023-01-25T19:09:04.691Z,7.90
2023-01-25T19:11:31.668Z,7.95
2023-01-25T19:13:58.668Z,8.38
2023-01-25T19:16:28.349Z,7.38
2023-01-25T19:18:58.272Z,7.05
2023-01-25T19:21:27.342Z,8.57
2023-01-25T19:26:24.792Z,8.23
2023-01-25T19:28:52.634Z,7.80
2023-01-25T19:31:22.886Z,7.15
2023-01-25T19:33:55.829Z,7.35
2023-01-25T19:36:26.460Z,6.97
2023-01-25T19:38:58.940Z,6.90
2023-01-25T19:41:30.005Z,6.28
2023-01-25T19:43:59.414Z,5.93
2023-01-25T19:46:34.060Z,6.75
2023-01-25T19:49:08.526Z,6.30
2023-01-25T19:51:37.664Z,4.95
2023-01-25T19:54:07.235Z,5.13
2023-01-25T19:56:42.195Z,4.35
2023-01-25T19:59:22.188Z,5.40
2023-01-25T20:01:49.629Z,5.55
2023-01-25T20:04:22.289Z,5.68
2023-01-25T20:06:50.569Z,5.88
2023-01-25T20:09:18.958Z,5.60
2023-01-25T20:11:49.325Z,5.38
2023-01-25T20:14:16.493Z,7.35
2023-01-25T20:16:48.143Z,6.47
2023-01-25T20:19:16.417Z,5.32
2023-01-25T20:21:45.752Z,5.63
2023-01-25T20:24:20.102Z,5.18
2023-01-25T20:26:47.627Z,4.60
2023-01-25T20:29:14.760Z,5.65
2023-01-25T20:31:46.259Z,6.05
2023-01-25T20:34:19.303Z,5.25
2023-01-25T20:36:46.777Z,5.80
2023-01-25T20:39:18.158Z,5.20
2023-01-25T20:41:45.698Z,5.47
2023-01-25T20:44:18.065Z,5.40
2023-01-25T20:46:48.978Z,4.95
2023-01-25T20:49:19.508Z,4.88
2023-01-25T20:51:47.756Z,5.57
2023-01-25T20:54:15.798Z,6.00
2023-01-25T20:56:43.326Z,5.43
2023-01-25T20:59:13.961Z,6.03
2023-01-25T21:01:41.199Z,7.03
2023-01-25T21:04:09.838Z,6.85
2023-01-25T21:06:38.752Z,5.68
2023-01-25T21:09:06.274Z,5.88
2023-01-25T21:11:34.810Z,5.07
2023-01-25T21:14:02.152Z,5.80
2023-01-25T21:16:29.620Z,6.18
2023-01-25T21:18:59.475Z,5.72
2023-01-25T21:21:29.031Z,5.82
2023-01-25T21:23:59.237Z,5.22
2023-01-25T21:26:29.423Z,4.22
2023-01-25T21:28:57.026Z,4.38
2023-01-25T21:31:26.513Z,6.15
2023-01-25T21:33:54.417Z,4.50
2023-01-25T21:36:22.079Z,3.72
2023-01-25T21:38:50.515Z,4.45
2023-01-25T21:41:25.406Z,4.80
2023-01-25T21:44:17.639Z,4.85
2023-01-25T21:47:00.717Z,3.05
2023-01-25T21:49:50.354Z,4.10
2023-01-25T21:52:17.387Z,3.72
2023-01-25T21:54:44.490Z,4.13
2023-01-25T21:57:11.837Z,3.70
2023-01-25T21:59:40.996Z,3.53
2023-01-25T22:02:11.916Z,3.13
2023-01-25T22:04:38.971Z,2.63
2023-01-25T22:07:10.354Z,2.88
2023-01-25T22:09:40.348Z,2.83
2023-01-25T22:12:09.835Z,3.28
2023-01-25T22:14:39.133Z,4.25
2023-01-25T22:17:06.185Z,3.05
2023-01-25T22:19:33.653Z,2.80
2023-01-25T22:22:00.717Z,2.72
2023-01-25T22:24:27.825Z,2.85
2023-01-25T22:27:22.946Z,3.85
2023-01-25T22:32:18.011Z,1.77
2023-01-25T22:34:45.037Z,2.88
2023-01-25T22:37:12.481Z,2.42
2023-01-25T22:39:39.532Z,2.67
2023-01-25T22:42:09.801Z,3.17
2023-01-25T22:44:37.011Z,3.50
2023-01-25T22:47:06.349Z,3.17
2023-01-25T22:49:34.592Z,3.00
2023-01-25T22:52:01.574Z,3.10
2023-01-25T22:54:28.613Z,2.83
2023-01-25T22:57:56.225Z,3.67
2023-01-25T23:00:49.508Z,2.88
2023-01-25T23:03:16.743Z,3.30
2023-01-25T23:05:43.855Z,3.05
2023-01-25T23:08:13.550Z,3.03
2023-01-25T23:10:40.571Z,2.95
2023-01-25T23:13:08.728Z,2.90
2023-01-25T23:15:35.831Z,2.50
2023-01-25T23:24:57.475Z,3.45
2023-01-25T23:27:28.515Z,3.20
2023-01-25T23:29:55.748Z,3.08
2023-01-25T23:34:54.635Z,2.78
2023-01-25T23:37:23.213Z,2.63
2023-01-25T23:39:50.700Z,2.38
2023-01-25T23:42:18.190Z,3.10
2023-01-25T23:44:47.607Z,4.07
2023-01-25T23:47:16.785Z,4.72
2023-01-25T23:49:44.067Z,3.47
2023-01-25T23:52:11.036Z,3.33
2023-01-25T23:54:38.135Z,4.13
2023-01-25T23:57:05.189Z,3.63
2023-01-25T23:59:33.667Z,3.50
